sensor_id;sensor_type;location;lat;lon;timestamp;pressure;altitude;pressure_sealevel;temperature;humidity
70304;BME280;57712;48.752;11.348;2023-03-21T00:00:40;97741.72;;;8.01;100.00
70304;BME280;57712;48.752;11.348;2023-03-21T00:03:06;97747.59;;;8.03;100.00
70304;BME280;57712;48.752;11.348;2023-03-21T00:05:34;97748.75;;;8.06;100.00
70304;BME280;57712;48.752;11.348;2023-03-21T00:08:04;97737.41;;;8.15;100.00
70304;BME280;57712;48.752;11.348;2023-03-21T00:10:31;97740.16;;;8.07;100.00
70304;BME280;57712;48.752;11.348;2023-03-21T00:13:08;97743.63;;;8.19;100.00
70304;BME280;57712;48.752;11.348;2023-03-21T00:15:39;97734.63;;;8.22;100.00
70304;BME280;57712;48.752;11.348;2023-03-21T00:18:29;97731.97;;;8.15;100.00
70304;BME280;57712;48.752;11.348;2023-03-21T00:23:44;97737.34;;;8.22;100.00
70304;BME280;57712;48.752;11.348;2023-03-21T00:26:12;97744.38;;;8.23;100.00
70304;BME280;57712;48.752;11.348;2023-03-21T00:28:40;97747.91;;;8.23;100.00
70304;BME280;57712;48.752;11.348;2023-03-21T00:31:08;97746.69;;;8.28;100.00
70304;BME280;57712;48.752;11.348;2023-03-21T00:33:35;97746.31;;;8.26;100.00
70304;BME280;57712;48.752;11.348;2023-03-21T00:36:07;97742.03;;;8.21;100.00
70304;BME280;57712;48.752;11.348;2023-03-21T00:38:35;97739.31;;;8.25;100.00
70304;BME280;57712;48.752;11.348;2023-03-21T00:41:10;97742.41;;;8.27;100.00
70304;BME280;57712;48.752;11.348;2023-03-21T00:43:51;97739.69;;;8.27;100.00
70304;BME280;57712;48.752;11.348;2023-03-21T00:46:20;97733.47;;;8.23;100.00
70304;BME280;57712;48.752;11.348;2023-03-21T00:48:50;97735.41;;;8.26;100.00
70304;BME280;57712;48.752;11.348;2023-03-21T00:51:19;97735.00;;;8.27;100.00
70304;BME280;57712;48.752;11.348;2023-03-21T00:53:55;97729.56;;;8.27;100.00
70304;BME280;57712;48.752;11.348;2023-03-21T00:56:22;97722.13;;;8.28;100.00
70304;BME280;57712;48.752;11.348;2023-03-21T00:58:49;97719.41;;;8.28;100.00
70304;BME280;57712;48.752;11.348;2023-03-21T01:01:16;97715.88;;;8.31;100.00
70304;BME280;57712;48.752;11.348;2023-03-21T01:03:43;97720.56;;;8.34;100.00
70304;BME280;57712;48.752;11.348;2023-03-21T01:06:19;97719.78;;;8.37;100.00
70304;BME280;57712;48.752;11.348;2023-03-21T01:08:47;97725.25;;;8.37;100.00
70304;BME280;57712;48.752;11.348;2023-03-21T01:11:21;97715.09;;;8.37;100.00
70304;BME280;57712;48.752;11.348;2023-03-21T01:13:49;97722.88;;;8.39;100.00
70304;BME280;57712;48.752;11.348;2023-03-21T01:16:24;97712.78;;;8.36;100.00
70304;BME280;57712;48.752;11.348;2023-03-21T01:18:52;97713.16;;;8.38;100.00
70304;BME280;57712;48.752;11.348;2023-03-21T01:21:19;97707.31;;;8.36;100.00
70304;BME280;57712;48.752;11.348;2023-03-21T01:23:46;97712.41;;;8.27;100.00
70304;BME280;57712;48.752;11.348;2023-03-21T01:26:14;97713.94;;;8.35;100.00
70304;BME280;57712;48.752;11.348;2023-03-21T01:28:42;97716.25;;;8.33;100.00
70304;BME280;57712;48.752;11.348;2023-03-21T01:31:11;97712.00;;;8.35;100.00
70304;BME280;57712;48.752;11.348;2023-03-21T01:33:38;97717.47;;;8.28;100.00
70304;BME280;57712;48.752;11.348;2023-03-21T01:36:06;97707.69;;;8.31;100.00
70304;BME280;57712;48.752;11.348;2023-03-21T01:38:39;97706.13;;;8.30;100.00
70304;BME280;57712;48.752;11.348;2023-03-21T01:41:06;97713.53;;;8.33;100.00
70304;BME280;57712;48.752;11.348;2023-03-21T01:43:45;97714.28;;;8.33;100.00
70304;BME280;57712;48.752;11.348;2023-03-21T01:46:28;97708.06;;;8.33;100.00
70304;BME280;57712;48.752;11.348;2023-03-21T01:49:25;97703.81;;;8.35;100.00
70304;BME280;57712;48.752;11.348;2023-03-21T01:51:57;97696.78;;;8.31;100.00
70304;BME280;57712;48.752;11.348;2023-03-21T01:54:38;97690.94;;;8.29;100.00
70304;BME280;57712;48.752;11.348;2023-03-21T01:57:16;97698.72;;;8.30;100.00
70304;BME280;57712;48.752;11.348;2023-03-21T01:59:49;97688.25;;;8.25;100.00
70304;BME280;57712;48.752;11.348;2023-03-21T02:02:21;97689.00;;;8.29;100.00
70304;BME280;57712;48.752;11.348;2023-03-21T02:04:51;97683.59;;;8.19;100.00
70304;BME280;57712;48.752;11.348;2023-03-21T02:07:29;97692.53;;;8.23;100.00
70304;BME280;57712;48.752;11.348;2023-03-21T02:09:57;97683.22;;;8.17;100.00
70304;BME280;57712;48.752;11.348;2023-03-21T02:12:25;97683.63;;;8.11;100.00
70304;BME280;57712;48.752;11.348;2023-03-21T02:14:53;97683.97;;;8.24;100.00
70304;BME280;57712;48.752;11.348;2023-03-21T02:25:47;97677.28;;;8.29;100.00
70304;BME280;57712;48.752;11.348;2023-03-21T02:28:29;97674.56;;;8.29;100.00
70304;BME280;57712;48.752;11.348;2023-03-21T02:31:05;97675.34;;;8.29;100.00
70304;BME280;57712;48.752;11.348;2023-03-21T02:34:11;97675.00;;;8.24;100.00
70304;BME280;57712;48.752;11.348;2023-03-21T02:39:48;97676.94;;;8.27;100.00
70304;BME280;57712;48.752;11.348;2023-03-21T02:42:32;97679.69;;;8.23;100.00
70304;BME280;57712;48.752;11.348;2023-03-21T02:45:21;97677.75;;;8.17;100.00
70304;BME280;57712;48.752;11.348;2023-03-21T02:47:56;97668.78;;;8.20;100.00
70304;BME280;57712;48.752;11.348;2023-03-21T02:50:34;97678.56;;;8.14;100.00
70304;BME280;57712;48.752;11.348;2023-03-21T02:53:06;97671.94;;;8.15;100.00
70304;BME280;57712;48.752;11.348;2023-03-21T02:55:34;97669.19;;;8.11;100.00
70304;BME280;57712;48.752;11.348;2023-03-21T02:58:03;97662.59;;;8.08;100.00
70304;BME280;57712;48.752;11.348;2023-03-21T03:00:39;97677.38;;;8.11;100.00
70304;BME280;57712;48.752;11.348;2023-03-21T03:03:10;97669.59;;;8.09;100.00
70304;BME280;57712;48.752;11.348;2023-03-21T03:05:48;97668.84;;;8.02;100.00
70304;BME280;57712;48.752;11.348;2023-03-21T03:08:32;97676.22;;;8.08;100.00
70304;BME280;57712;48.752;11.348;2023-03-21T03:11:30;97671.22;;;8.03;100.00
70304;BME280;57712;48.752;11.348;2023-03-21T03:17:42;97662.97;;;8.10;100.00
70304;BME280;57712;48.752;11.348;2023-03-21T03:23:09;97663.03;;;8.03;100.00
70304;BME280;57712;48.752;11.348;2023-03-21T03:25:44;97672.69;;;8.11;100.00
70304;BME280;57712;48.752;11.348;2023-03-21T03:28:17;97668.47;;;8.03;100.00
70304;BME280;57712;48.752;11.348;2023-03-21T03:30:46;97672.75;;;8.01;100.00
70304;BME280;57712;48.752;11.348;2023-03-21T03:33:35;97667.69;;;7.99;100.00
70304;BME280;57712;48.752;11.348;2023-03-21T03:36:05;97666.59;;;7.93;100.00
70304;BME280;57712;48.752;11.348;2023-03-21T03:38:36;97669.69;;;7.95;100.00
70304;BME280;57712;48.752;11.348;2023-03-21T03:41:09;97664.63;;;7.94;100.00
70304;BME280;57712;48.752;11.348;2023-03-21T03:43:46;97671.22;;;7.96;100.00
70304;BME280;57712;48.752;11.348;2023-03-21T03:46:24;97661.13;;;7.90;100.00
70304;BME280;57712;48.752;11.348;2023-03-21T03:49:03;97663.44;;;7.91;100.00
70304;BME280;57712;48.752;11.348;2023-03-21T03:51:50;97661.88;;;7.97;100.00
70304;BME280;57712;48.752;11.348;2023-03-21T03:54:26;97659.53;;;7.99;100.00
70304;BME280;57712;48.752;11.348;2023-03-21T03:56:57;97666.16;;;7.98;100.00
70304;BME280;57712;48.752;11.348;2023-03-21T03:59:24;97661.06;;;8.00;100.00
70304;BME280;57712;48.752;11.348;2023-03-21T04:01:51;97661.09;;;7.97;100.00
70304;BME280;57712;48.752;11.348;2023-03-21T04:04:17;97666.59;;;7.93;100.00
70304;BME280;57712;48.752;11.348;2023-03-21T04:06:48;97663.06;;;7.96;100.00
70304;BME280;57712;48.752;11.348;2023-03-21T04:09:17;97661.09;;;7.97;100.00
70304;BME280;57712;48.752;11.348;2023-03-21T04:11:55;97655.69;;;7.93;100.00
70304;BME280;57712;48.752;11.348;2023-03-21T04:14:22;97654.91;;;7.93;100.00
70304;BME280;57712;48.752;11.348;2023-03-21T04:16:49;97659.56;;;7.92;100.00
70304;BME280;57712;48.752;11.348;2023-03-21T04:19:17;97660.34;;;7.89;100.00
70304;BME280;57712;48.752;11.348;2023-03-21T04:21:44;97668.13;;;7.91;100.00
70304;BME280;57712;48.752;11.348;2023-03-21T04:24:14;97669.72;;;7.81;100.00
70304;BME280;57712;48.752;11.348;2023-03-21T04:26:40;97664.28;;;7.81;100.00
70304;BME280;57712;48.752;11.348;2023-03-21T04:29:08;97670.13;;;7.83;100.00
70304;BME280;57712;48.752;11.348;2023-03-21T04:31:36;97665.06;;;7.78;100.00
70304;BME280;57712;48.752;11.348;2023-03-21T04:34:07;97659.63;;;7.71;100.00
70304;BME280;57712;48.752;11.348;2023-03-21T04:36:35;97655.41;;;7.63;100.00
70304;BME280;57712;48.752;11.348;2023-03-21T04:39:10;97658.88;;;7.67;100.00
70304;BME280;57712;48.752;11.348;2023-03-21T04:41:41;97660.44;;;7.68;100.00
70304;BME280;57712;48.752;11.348;2023-03-21T04:44:08;97658.09;;;7.70;100.00
70304;BME280;57712;48.752;11.348;2023-03-21T04:46:35;97653.41;;;7.70;100.00
70304;BME280;57712;48.752;11.348;2023-03-21T04:49:02;97655.00;;;7.68;100.00
70304;BME280;57712;48.752;11.348;2023-03-21T04:51:29;97663.19;;;7.61;100.00
70304;BME280;57712;48.752;11.348;2023-03-21T04:53:56;97660.47;;;7.64;100.00
70304;BME280;57712;48.752;11.348;2023-03-21T04:56:27;97662.44;;;7.57;100.00
70304;BME280;57712;48.752;11.348;2023-03-21T04:59:05;97658.53;;;7.58;100.00
70304;BME280;57712;48.752;11.348;2023-03-21T05:01:32;97658.13;;;7.63;100.00
70304;BME280;57712;48.752;11.348;2023-03-21T05:04:00;97652.69;;;7.63;100.00
70304;BME280;57712;48.752;11.348;2023-03-21T05:06:27;97668.28;;;7.55;100.00
70304;BME280;57712;48.752;11.348;2023-03-21T05:08:55;97670.22;;;7.58;100.00
70304;BME280;57712;48.752;11.348;2023-03-21T05:11:26;97662.81;;;7.59;100.00
70304;BME280;57712;48.752;11.348;2023-03-21T05:13:53;97663.19;;;7.61;100.00
70304;BME280;57712;48.752;11.348;2023-03-21T05:16:19;97665.91;;;7.61;100.00
70304;BME280;57712;48.752;11.348;2023-03-21T05:18:46;97671.78;;;7.63;100.00
70304;BME280;57712;48.752;11.348;2023-03-21T05:21:15;97665.13;;;7.67;100.00
70304;BME280;57712;48.752;11.348;2023-03-21T05:23:43;97671.34;;;7.68;100.00
70304;BME280;57712;48.752;11.348;2023-03-21T05:26:10;97669.81;;;7.60;100.00
70304;BME280;57712;48.752;11.348;2023-03-21T05:28:36;97670.97;;;7.66;100.00
70304;BME280;57712;48.752;11.348;2023-03-21T05:31:03;97674.50;;;7.63;100.00
70304;BME280;57712;48.752;11.348;2023-03-21T05:33:29;97672.97;;;7.47;100.00
70304;BME280;57712;48.752;11.348;2023-03-21T05:35:57;97667.53;;;7.51;100.00
70304;BME280;57712;48.752;11.348;2023-03-21T05:38:24;97668.28;;;7.48;100.00
70304;BME280;57712;48.752;11.348;2023-03-21T05:40:51;97666.75;;;7.50;100.00
70304;BME280;57712;48.752;11.348;2023-03-21T05:43:19;97667.50;;;7.62;100.00
70304;BME280;57712;48.752;11.348;2023-03-21T05:45:45;97665.91;;;7.71;100.00
70304;BME280;57712;48.752;11.348;2023-03-21T05:48:13;97665.09;;;7.74;100.00
70304;BME280;57712;48.752;11.348;2023-03-21T05:50:41;97670.91;;;7.80;100.00
70304;BME280;57712;48.752;11.348;2023-03-21T05:53:08;97674.41;;;7.84;100.00
70304;BME280;57712;48.752;11.348;2023-03-21T05:55:35;97677.88;;;7.88;100.00
70304;BME280;57712;48.752;11.348;2023-03-21T05:58:02;97674.38;;;7.88;100.00
70304;BME280;57712;48.752;11.348;2023-03-21T06:00:29;97675.16;;;7.88;100.00
70304;BME280;57712;48.752;11.348;2023-03-21T06:02:56;97675.53;;;7.90;100.00
70304;BME280;57712;48.752;11.348;2023-03-21T06:05:23;97683.66;;;8.01;100.00
70304;BME280;57712;48.752;11.348;2023-03-21T06:07:49;97671.22;;;8.03;100.00
70304;BME280;57712;48.752;11.348;2023-03-21T06:10:16;97681.31;;;8.06;100.00
70304;BME280;57712;48.752;11.348;2023-03-21T06:12:42;97678.97;;;8.08;100.00
70304;BME280;57712;48.752;11.348;2023-03-21T06:15:09;97682.06;;;8.14;100.00
70304;BME280;57712;48.752;11.348;2023-03-21T06:17:36;97679.75;;;8.05;100.00
70304;BME280;57712;48.752;11.348;2023-03-21T06:20:05;97679.75;;;8.09;100.00
70304;BME280;57712;48.752;11.348;2023-03-21T06:22:33;97679.28;;;8.25;100.00
70304;BME280;57712;48.752;11.348;2023-03-21T06:25:00;97680.84;;;8.19;100.00
70304;BME280;57712;48.752;11.348;2023-03-21T06:27:27;97687.41;;;8.32;100.00
70304;BME280;57712;48.752;11.348;2023-03-21T06:29:54;97685.50;;;8.22;100.00
70304;BME280;57712;48.752;11.348;2023-03-21T06:32:24;97690.97;;;8.25;100.00
70304;BME280;57712;48.752;11.348;2023-03-21T06:34:51;97691.28;;;8.45;100.00
70304;BME280;57712;48.752;11.348;2023-03-21T06:37:18;97684.63;;;8.43;100.00
70304;BME280;57712;48.752;11.348;2023-03-21T06:39:45;97688.91;;;8.47;100.00
70304;BME280;57712;48.752;11.348;2023-03-21T06:42:13;97693.59;;;8.43;100.00
70304;BME280;57712;48.752;11.348;2023-03-21T06:44:40;97694.00;;;8.45;100.00
70304;BME280;57712;48.752;11.348;2023-03-21T06:47:07;97682.25;;;8.55;100.00
70304;BME280;57712;48.752;11.348;2023-03-21T06:49:33;97683.38;;;8.54;100.00
70304;BME280;57712;48.752;11.348;2023-03-21T06:52:00;97695.81;;;8.66;100.00
70304;BME280;57712;48.752;11.348;2023-03-21T06:54:26;97677.03;;;8.72;100.00
70304;BME280;57712;48.752;11.348;2023-03-21T06:56:53;97678.59;;;8.73;100.00
70304;BME280;57712;48.752;11.348;2023-03-21T06:59:20;97674.75;;;8.63;100.00
70304;BME280;57712;48.752;11.348;2023-03-21T07:01:47;97686.84;;;8.62;100.00
70304;BME280;57712;48.752;11.348;2023-03-21T07:04:13;97679.88;;;8.57;100.00
70304;BME280;57712;48.752;11.348;2023-03-21T07:06:40;97685.63;;;8.70;100.00
70304;BME280;57712;48.752;11.348;2023-03-21T07:09:07;97681.63;;;8.82;100.00
70304;BME280;57712;48.752;11.348;2023-03-21T07:11:35;97679.34;;;8.77;100.00
70304;BME280;57712;48.752;11.348;2023-03-21T07:14:02;97675.44;;;8.78;100.00
70304;BME280;57712;48.752;11.348;2023-03-21T07:16:29;97684.75;;;8.84;100.00
70304;BME280;57712;48.752;11.348;2023-03-21T07:18:56;97679.50;;;9.07;100.00
70304;BME280;57712;48.752;11.348;2023-03-21T07:21:22;97686.09;;;9.06;100.00
70304;BME280;57712;48.752;11.348;2023-03-21T07:23:49;97680.69;;;9.03;100.00
70304;BME280;57712;48.752;11.348;2023-03-21T07:26:16;97689.81;;;9.26;100.00
70304;BME280;57712;48.752;11.348;2023-03-21T07:28:44;97685.44;;;9.36;100.00
70304;BME280;57712;48.752;11.348;2023-03-21T07:31:12;97685.50;;;9.33;100.00
70304;BME280;57712;48.752;11.348;2023-03-21T07:33:39;97685.53;;;9.29;100.00
70304;BME280;57712;48.752;11.348;2023-03-21T07:36:09;97692.06;;;9.39;100.00
70304;BME280;57712;48.752;11.348;2023-03-21T07:38:38;97689.81;;;9.26;100.00
70304;BME280;57712;48.752;11.348;2023-03-21T07:41:06;97681.31;;;9.21;100.00
70304;BME280;57712;48.752;11.348;2023-03-21T07:43:33;97674.19;;;9.31;100.00
70304;BME280;57712;48.752;11.348;2023-03-21T07:46:04;97685.00;;;9.41;100.00
70304;BME280;57712;48.752;11.348;2023-03-21T07:48:32;97687.19;;;9.57;100.00
70304;BME280;57712;48.752;11.348;2023-03-21T07:50:59;97686.97;;;9.41;100.00
70304;BME280;57712;48.752;11.348;2023-03-21T07:53:25;97676.34;;;9.50;100.00
70304;BME280;57712;48.752;11.348;2023-03-21T07:55:53;97687.63;;;9.86;100.00
70304;BME280;57712;48.752;11.348;2023-03-21T07:58:27;97687.56;;;9.93;100.00
70304;BME280;57712;48.752;11.348;2023-03-21T08:00:54;97681.75;;;9.88;100.00
70304;BME280;57712;48.752;11.348;2023-03-21T08:03:23;97681.22;;;10.00;100.00
70304;BME280;57712;48.752;11.348;2023-03-21T08:05:51;97686.16;;;10.12;100.00
70304;BME280;57712;48.752;11.348;2023-03-21T08:08:18;97684.72;;;10.00;100.00
70304;BME280;57712;48.752;11.348;2023-03-21T08:10:44;97681.88;;;10.11;100.00
70304;BME280;57712;48.752;11.348;2023-03-21T08:13:11;97678.19;;;10.52;100.00
70304;BME280;57712;48.752;11.348;2023-03-21T08:15:38;97683.56;;;10.59;100.00
70304;BME280;57712;48.752;11.348;2023-03-21T08:18:07;97686.66;;;10.61;100.00
70304;BME280;57712;48.752;11.348;2023-03-21T08:20:35;97682.84;;;10.55;100.00
70304;BME280;57712;48.752;11.348;2023-03-21T08:23:02;97679.19;;;10.88;100.00
70304;BME280;57712;48.752;11.348;2023-03-21T08:25:29;97675.88;;;11.01;100.00
70304;BME280;57712;48.752;11.348;2023-03-21T08:27:56;97680.88;;;11.29;100.00
70304;BME280;57712;48.752;11.348;2023-03-21T08:30:25;97675.84;;;11.24;100.00
70304;BME280;57712;48.752;11.348;2023-03-21T08:32:58;97670.97;;;11.75;100.00
70304;BME280;57712;48.752;11.348;2023-03-21T08:35:27;97673.88;;;11.68;100.00
70304;BME280;57712;48.752;11.348;2023-03-21T08:37:54;97668.34;;;11.91;100.00
70304;BME280;57712;48.752;11.348;2023-03-21T08:40:21;97678.06;;;11.96;100.00
70304;BME280;57712;48.752;11.348;2023-03-21T08:42:47;97665.69;;;12.24;100.00
70304;BME280;57712;48.752;11.348;2023-03-21T08:45:15;97668.78;;;12.26;100.00
70304;BME280;57712;48.752;11.348;2023-03-21T08:47:42;97667.56;;;12.10;100.00
70304;BME280;57712;48.752;11.348;2023-03-21T08:50:12;97664.06;;;12.62;100.00
70304;BME280;57712;48.752;11.348;2023-03-21T08:52:40;97659.81;;;12.05;100.00
70304;BME280;57712;48.752;11.348;2023-03-21T08:55:07;97655.63;;;12.53;100.00
70304;BME280;57712;48.752;11.348;2023-03-21T08:57:34;97659.41;;;12.59;100.00
70304;BME280;57712;48.752;11.348;2023-03-21T09:00:01;97658.97;;;12.45;100.00
70304;BME280;57712;48.752;11.348;2023-03-21T09:02:32;97661.03;;;12.57;100.00
70304;BME280;57712;48.752;11.348;2023-03-21T09:04:58;97658.38;;;12.86;100.00
70304;BME280;57712;48.752;11.348;2023-03-21T09:07:25;97655.13;;;13.07;100.00
70304;BME280;57712;48.752;11.348;2023-03-21T09:09:53;97653.38;;;12.81;100.00
70304;BME280;57712;48.752;11.348;2023-03-21T09:12:39;97647.13;;;12.80;100.00
70304;BME280;57712;48.752;11.348;2023-03-21T09:15:08;97648.66;;;12.81;100.00
70304;BME280;57712;48.752;11.348;2023-03-21T09:17:34;97652.19;;;13.31;100.00
70304;BME280;57712;48.752;11.348;2023-03-21T09:20:01;97652.09;;;13.63;100.00
70304;BME280;57712;48.752;11.348;2023-03-21T09:22:39;97652.56;;;13.74;100.00
70304;BME280;57712;48.752;11.348;2023-03-21T09:25:08;97646.41;;;13.70;100.00
70304;BME280;57712;48.752;11.348;2023-03-21T09:27:36;97651.59;;;13.52;100.00
70304;BME280;57712;48.752;11.348;2023-03-21T09:30:04;97654.19;;;14.01;100.00
70304;BME280;57712;48.752;11.348;2023-03-21T09:32:31;97645.03;;;13.62;100.00
70304;BME280;57712;48.752;11.348;2023-03-21T09:34:59;97651.00;;;14.02;100.00
70304;BME280;57712;48.752;11.348;2023-03-21T09:37:25;97643.00;;;13.79;100.00
70304;BME280;57712;48.752;11.348;2023-03-21T09:39:53;97638.41;;;13.89;100.00
70304;BME280;57712;48.752;11.348;2023-03-21T09:42:39;97634.34;;;14.06;100.00
70304;BME280;57712;48.752;11.348;2023-03-21T09:45:17;97626.06;;;13.93;100.00
70304;BME280;57712;48.752;11.348;2023-03-21T09:47:47;97637.69;;;13.72;100.00
70304;BME280;57712;48.752;11.348;2023-03-21T09:50:29;97634.75;;;13.50;100.00
70304;BME280;57712;48.752;11.348;2023-03-21T09:53:21;97642.28;;;14.04;100.00
70304;BME280;57712;48.752;11.348;2023-03-21T09:55:49;97636.25;;;14.22;100.00
70304;BME280;57712;48.752;11.348;2023-03-21T10:01:02;97639.41;;;13.95;100.00
70304;BME280;57712;48.752;11.348;2023-03-21T10:03:31;97636.88;;;14.00;100.00
70304;BME280;57712;48.752;11.348;2023-03-21T10:06:03;97637.31;;;13.57;100.00
70304;BME280;57712;48.752;11.348;2023-03-21T10:08:39;97643.09;;;13.75;100.00
70304;BME280;57712;48.752;11.348;2023-03-21T10:11:19;97636.13;;;14.00;100.00
70304;BME280;57712;48.752;11.348;2023-03-21T10:13:55;97632.28;;;14.35;100.00
70304;BME280;57712;48.752;11.348;2023-03-21T10:16:29;97631.81;;;13.57;100.00
70304;BME280;57712;48.752;11.348;2023-03-21T10:19:05;97625.44;;;14.27;100.00
70304;BME280;57712;48.752;11.348;2023-03-21T10:21:37;97623.69;;;14.59;100.00
70304;BME280;57712;48.752;11.348;2023-03-21T10:24:25;97618.66;;;14.44;99.46
70304;BME280;57712;48.752;11.348;2023-03-21T10:26:53;97619.25;;;13.98;99.73
70304;BME280;57712;48.752;11.348;2023-03-21T10:29:23;97609.38;;;13.71;100.00
70304;BME280;57712;48.752;11.348;2023-03-21T10:31:53;97608.66;;;13.83;96.85
70304;BME280;57712;48.752;11.348;2023-03-21T10:34:40;97608.38;;;14.58;99.38
70304;BME280;57712;48.752;11.348;2023-03-21T10:37:09;97602.75;;;14.23;96.68
70304;BME280;57712;48.752;11.348;2023-03-21T10:39:39;97600.00;;;14.23;100.00
70304;BME280;57712;48.752;11.348;2023-03-21T10:42:17;97590.72;;;14.68;100.00
70304;BME280;57712;48.752;11.348;2023-03-21T10:44:47;97601.22;;;14.60;100.00
70304;BME280;57712;48.752;11.348;2023-03-21T10:47:26;97597.97;;;14.87;98.60
70304;BME280;57712;48.752;11.348;2023-03-21T10:49:53;97594.50;;;15.65;97.20
70304;BME280;57712;48.752;11.348;2023-03-21T10:52:42;97586.34;;;15.05;97.20
70304;BME280;57712;48.752;11.348;2023-03-21T10:55:20;97590.59;;;14.84;99.01
70304;BME280;57712;48.752;11.348;2023-03-21T10:57:52;97589.19;;;14.29;100.00
70304;BME280;57712;48.752;11.348;2023-03-21T11:00:22;97580.59;;;15.34;99.34
70304;BME280;57712;48.752;11.348;2023-03-21T11:02:52;97582.91;;;14.41;100.00
70304;BME280;57712;48.752;11.348;2023-03-21T11:05:23;97570.78;;;14.13;100.00
70304;BME280;57712;48.752;11.348;2023-03-21T11:08:05;97570.91;;;14.95;98.71
70304;BME280;57712;48.752;11.348;2023-03-21T11:10:51;97571.66;;;16.36;94.55
70304;BME280;57712;48.752;11.348;2023-03-21T11:13:26;97570.03;;;15.76;85.90
70304;BME280;57712;48.752;11.348;2023-03-21T11:16:05;97568.75;;;14.77;90.13
70304;BME280;57712;48.752;11.348;2023-03-21T11:18:32;97558.34;;;14.94;95.48
70304;BME280;57712;48.752;11.348;2023-03-21T11:21:04;97568.56;;;14.71;94.44
70304;BME280;57712;48.752;11.348;2023-03-21T11:23:33;97554.53;;;15.79;87.10
70304;BME280;57712;48.752;11.348;2023-03-21T11:26:01;97557.84;;;15.96;87.62
70304;BME280;57712;48.752;11.348;2023-03-21T11:28:36;97561.22;;;16.98;84.11
70304;BME280;57712;48.752;11.348;2023-03-21T11:31:04;97558.72;;;16.24;77.79
70304;BME280;57712;48.752;11.348;2023-03-21T11:33:34;97557.69;;;16.98;84.09
70304;BME280;57712;48.752;11.348;2023-03-21T11:36:52;97556.84;;;15.80;81.57
70304;BME280;57712;48.752;11.348;2023-03-21T11:41:39;97548.34;;;16.46;82.57
70304;BME280;57712;48.752;11.348;2023-03-21T11:44:06;97528.81;;;15.91;88.99
70304;BME280;57712;48.752;11.348;2023-03-21T11:46:48;97528.03;;;16.31;85.95
70304;BME280;57712;48.752;11.348;2023-03-21T11:49:14;97528.78;;;16.90;80.10
70304;BME280;57712;48.752;11.348;2023-03-21T11:51:53;97526.63;;;16.85;76.07
70304;BME280;57712;48.752;11.348;2023-03-21T11:54:42;97518.28;;;16.57;73.24
70304;BME280;57712;48.752;11.348;2023-03-21T11:57:39;97515.66;;;16.04;83.80
70304;BME280;57712;48.752;11.348;2023-03-21T12:00:25;97507.00;;;15.84;82.94
70304;BME280;57712;48.752;11.348;2023-03-21T12:05:52;97513.69;;;17.27;72.49
70304;BME280;57712;48.752;11.348;2023-03-21T12:08:50;97504.50;;;17.03;69.74
70304;BME280;57712;48.752;11.348;2023-03-21T12:16:46;97493.41;;;17.21;73.49
70304;BME280;57712;48.752;11.348;2023-03-21T12:19:32;97491.84;;;17.99;69.78
70304;BME280;57712;48.752;11.348;2023-03-21T12:24:54;97493.50;;;18.39;66.50
70304;BME280;57712;48.752;11.348;2023-03-21T12:36:07;97482.06;;;16.92;76.36
70304;BME280;57712;48.752;11.348;2023-03-21T12:38:41;97467.28;;;18.40;64.26
70304;BME280;57712;48.752;11.348;2023-03-21T12:41:17;97475.75;;;17.79;71.24
70304;BME280;57712;48.752;11.348;2023-03-21T12:44:03;97457.47;;;17.64;71.28
70304;BME280;57712;48.752;11.348;2023-03-21T12:46:54;97453.63;;;19.14;66.27
70304;BME280;57712;48.752;11.348;2023-03-21T12:49:28;97459.47;;;18.53;64.51
70304;BME280;57712;48.752;11.348;2023-03-21T12:52:03;97452.56;;;19.26;63.68
70304;BME280;57712;48.752;11.348;2023-03-21T12:54:35;97446.34;;;19.46;62.78
70304;BME280;57712;48.752;11.348;2023-03-21T12:57:38;97453.59;;;17.61;65.33
70304;BME280;57712;48.752;11.348;2023-03-21T13:00:23;97445.75;;;17.08;67.49
70304;BME280;57712;48.752;11.348;2023-03-21T13:03:01;97440.84;;;16.85;70.80
70304;BME280;57712;48.752;11.348;2023-03-21T13:05:32;97446.66;;;17.14;71.51
70304;BME280;57712;48.752;11.348;2023-03-21T13:08:10;97431.97;;;17.93;66.51
70304;BME280;57712;48.752;11.348;2023-03-21T13:10:42;97428.09;;;18.23;61.61
70304;BME280;57712;48.752;11.348;2023-03-21T13:13:21;97427.13;;;17.69;65.17
70304;BME280;57712;48.752;11.348;2023-03-21T13:21:26;97421.78;;;16.96;66.46
70304;BME280;57712;48.752;11.348;2023-03-21T13:24:03;97420.22;;;17.13;66.94
70304;BME280;57712;48.752;11.348;2023-03-21T13:26:38;97414.41;;;17.53;71.31
70304;BME280;57712;48.752;11.348;2023-03-21T13:29:14;97409.09;;;17.31;65.13
70304;BME280;57712;48.752;11.348;2023-03-21T13:31:50;97401.41;;;18.02;65.03
70304;BME280;57712;48.752;11.348;2023-03-21T13:34:22;97401.03;;;17.52;66.24
70304;BME280;57712;48.752;11.348;2023-03-21T13:36:50;97399.63;;;17.05;68.78
70304;BME280;57712;48.752;11.348;2023-03-21T13:39:25;97393.97;;;16.26;70.88
70304;BME280;57712;48.752;11.348;2023-03-21T13:41:52;97391.31;;;16.04;72.02
70304;BME280;57712;48.752;11.348;2023-03-21T13:44:39;97391.91;;;15.99;75.35
70304;BME280;57712;48.752;11.348;2023-03-21T13:53:10;97381.78;;;16.14;75.83
70304;BME280;57712;48.752;11.348;2023-03-21T13:55:46;97378.84;;;15.91;76.30
70304;BME280;57712;48.752;11.348;2023-03-21T13:58:22;97385.75;;;15.86;80.61
70304;BME280;57712;48.752;11.348;2023-03-21T14:04:16;97376.16;;;16.36;80.87
70304;BME280;57712;48.752;11.348;2023-03-21T14:09:20;97383.28;;;15.79;84.18
70304;BME280;57712;48.752;11.348;2023-03-21T14:11:49;97375.41;;;15.68;84.36
70304;BME280;57712;48.752;11.348;2023-03-21T14:14:24;97374.22;;;15.38;89.16